sensor_id;sensor_type;location;lat;lon;timestamp;P1;durP1;ratioP1;P2;durP2;ratioP2
5032;SDS011;2535;49.888;8.942;2023-06-14T00:01:43;40.40;;;1.87;;
5032;SDS011;2535;49.888;8.942;2023-06-14T00:04:10;41.33;;;2.00;;
5032;SDS011;2535;49.888;8.942;2023-06-14T00:06:36;45.83;;;2.20;;
5032;SDS011;2535;49.888;8.942;2023-06-14T00:09:03;42.17;;;2.53;;
5032;SDS011;2535;49.888;8.942;2023-06-14T00:11:29;44.67;;;3.70;;
5032;SDS011;2535;49.888;8.942;2023-06-14T00:13:55;42.80;;;2.27;;
5032;SDS011;2535;49.888;8.942;2023-06-14T00:16:21;42.20;;;2.30;;
5032;SDS011;2535;49.888;8.942;2023-06-14T00:18:47;41.80;;;1.97;;
5032;SDS011;2535;49.888;8.942;2023-06-14T00:21:13;44.10;;;2.67;;
5032;SDS011;2535;49.888;8.942;2023-06-14T00:23:40;42.97;;;2.50;;
5032;SDS011;2535;49.888;8.942;2023-06-14T00:26:05;44.90;;;2.50;;
5032;SDS011;2535;49.888;8.942;2023-06-14T00:28:31;42.17;;;2.00;;
5032;SDS011;2535;49.888;8.942;2023-06-14T00:30:57;44.03;;;2.60;;
5032;SDS011;2535;49.888;8.942;2023-06-14T00:33:23;42.80;;;2.27;;
5032;SDS011;2535;49.888;8.942;2023-06-14T00:35:50;42.50;;;2.07;;
5032;SDS011;2535;49.888;8.942;2023-06-14T00:38:18;45.10;;;3.17;;
5032;SDS011;2535;49.888;8.942;2023-06-14T00:40:44;43.13;;;2.43;;
5032;SDS011;2535;49.888;8.942;2023-06-14T00:43:10;43.40;;;2.20;;
5032;SDS011;2535;49.888;8.942;2023-06-14T00:45:36;42.97;;;2.07;;
5032;SDS011;2535;49.888;8.942;2023-06-14T00:48:03;43.77;;;2.20;;
5032;SDS011;2535;49.888;8.942;2023-06-14T00:50:31;45.77;;;2.70;;
5032;SDS011;2535;49.888;8.942;2023-06-14T00:52:58;44.30;;;2.20;;
5032;SDS011;2535;49.888;8.942;2023-06-14T00:55:24;43.47;;;1.70;;
5032;SDS011;2535;49.888;8.942;2023-06-14T00:57:50;47.07;;;2.73;;
5032;SDS011;2535;49.888;8.942;2023-06-14T01:00:16;44.80;;;2.93;;
5032;SDS011;2535;49.888;8.942;2023-06-14T01:02:42;42.47;;;1.80;;
5032;SDS011;2535;49.888;8.942;2023-06-14T01:05:09;41.90;;;1.40;;
5032;SDS011;2535;49.888;8.942;2023-06-14T01:13:07;42.80;;;1.80;;
5032;SDS011;2535;49.888;8.942;2023-06-14T01:15:34;42.57;;;1.97;;
5032;SDS011;2535;49.888;8.942;2023-06-14T01:18:01;43.00;;;2.33;;
5032;SDS011;2535;49.888;8.942;2023-06-14T01:20:31;43.40;;;2.50;;
5032;SDS011;2535;49.888;8.942;2023-06-14T01:22:57;43.27;;;2.33;;
5032;SDS011;2535;49.888;8.942;2023-06-14T01:25:24;44.70;;;2.17;;
5032;SDS011;2535;49.888;8.942;2023-06-14T01:27:50;42.87;;;2.30;;
5032;SDS011;2535;49.888;8.942;2023-06-14T01:30:17;44.93;;;2.70;;
5032;SDS011;2535;49.888;8.942;2023-06-14T01:32:43;44.40;;;3.10;;
5032;SDS011;2535;49.888;8.942;2023-06-14T01:35:10;42.93;;;2.10;;
5032;SDS011;2535;49.888;8.942;2023-06-14T01:37:36;43.97;;;2.70;;
5032;SDS011;2535;49.888;8.942;2023-06-14T01:40:03;42.97;;;2.20;;
5032;SDS011;2535;49.888;8.942;2023-06-14T01:42:31;42.70;;;2.37;;
5032;SDS011;2535;49.888;8.942;2023-06-14T01:44:58;43.13;;;2.00;;
5032;SDS011;2535;49.888;8.942;2023-06-14T01:47:24;43.00;;;2.00;;
5032;SDS011;2535;49.888;8.942;2023-06-14T01:49:50;45.40;;;2.80;;
5032;SDS011;2535;49.888;8.942;2023-06-14T01:52:16;45.43;;;3.60;;
5032;SDS011;2535;49.888;8.942;2023-06-14T01:54:44;44.97;;;3.30;;
5032;SDS011;2535;49.888;8.942;2023-06-14T01:57:11;44.43;;;2.40;;
5032;SDS011;2535;49.888;8.942;2023-06-14T01:59:37;43.30;;;2.10;;
5032;SDS011;2535;49.888;8.942;2023-06-14T02:02:03;43.77;;;2.10;;
5032;SDS011;2535;49.888;8.942;2023-06-14T02:04:29;44.27;;;2.70;;
5032;SDS011;2535;49.888;8.942;2023-06-14T02:06:55;43.57;;;1.90;;
5032;SDS011;2535;49.888;8.942;2023-06-14T02:09:22;44.20;;;2.10;;
5032;SDS011;2535;49.888;8.942;2023-06-14T02:11:48;45.80;;;2.73;;
5032;SDS011;2535;49.888;8.942;2023-06-14T02:14:14;44.17;;;2.43;;
5032;SDS011;2535;49.888;8.942;2023-06-14T02:16:41;43.37;;;2.03;;
5032;SDS011;2535;49.888;8.942;2023-06-14T02:19:13;44.30;;;2.40;;
5032;SDS011;2535;49.888;8.942;2023-06-14T02:21:40;44.30;;;2.20;;
5032;SDS011;2535;49.888;8.942;2023-06-14T02:24:06;45.50;;;2.53;;
5032;SDS011;2535;49.888;8.942;2023-06-14T02:26:32;43.30;;;2.40;;
5032;SDS011;2535;49.888;8.942;2023-06-14T02:28:58;44.20;;;2.20;;
5032;SDS011;2535;49.888;8.942;2023-06-14T02:31:24;44.30;;;2.30;;
5032;SDS011;2535;49.888;8.942;2023-06-14T02:33:50;45.07;;;3.03;;
5032;SDS011;2535;49.888;8.942;2023-06-14T02:36:16;44.40;;;2.40;;
5032;SDS011;2535;49.888;8.942;2023-06-14T02:38:43;45.10;;;2.27;;
5032;SDS011;2535;49.888;8.942;2023-06-14T02:41:08;44.57;;;2.80;;
5032;SDS011;2535;49.888;8.942;2023-06-14T02:43:35;43.73;;;2.60;;
5032;SDS011;2535;49.888;8.942;2023-06-14T02:46:01;44.37;;;2.70;;
5032;SDS011;2535;49.888;8.942;2023-06-14T02:48:27;45.17;;;3.00;;
5032;SDS011;2535;49.888;8.942;2023-06-14T02:50:53;44.17;;;2.17;;
5032;SDS011;2535;49.888;8.942;2023-06-14T02:53:19;44.27;;;2.30;;
5032;SDS011;2535;49.888;8.942;2023-06-14T02:55:45;45.57;;;2.53;;
5032;SDS011;2535;49.888;8.942;2023-06-14T02:58:11;44.20;;;2.40;;
5032;SDS011;2535;49.888;8.942;2023-06-14T03:00:38;43.60;;;1.73;;
5032;SDS011;2535;49.888;8.942;2023-06-14T03:03:05;43.60;;;2.03;;
5032;SDS011;2535;49.888;8.942;2023-06-14T03:05:38;43.90;;;2.30;;
5032;SDS011;2535;49.888;8.942;2023-06-14T03:08:05;46.40;;;2.87;;
5032;SDS011;2535;49.888;8.942;2023-06-14T03:10:32;47.23;;;3.13;;
5032;SDS011;2535;49.888;8.942;2023-06-14T03:12:58;44.93;;;2.47;;
5032;SDS011;2535;49.888;8.942;2023-06-14T03:15:23;44.70;;;2.33;;
5032;SDS011;2535;49.888;8.942;2023-06-14T03:17:49;44.97;;;2.53;;
5032;SDS011;2535;49.888;8.942;2023-06-14T03:20:15;44.33;;;2.70;;
5032;SDS011;2535;49.888;8.942;2023-06-14T03:22:42;44.03;;;1.73;;
5032;SDS011;2535;49.888;8.942;2023-06-14T03:25:10;46.07;;;2.60;;
5032;SDS011;2535;49.888;8.942;2023-06-14T03:27:37;45.10;;;2.37;;
5032;SDS011;2535;49.888;8.942;2023-06-14T03:30:03;46.60;;;2.83;;
5032;SDS011;2535;49.888;8.942;2023-06-14T03:32:30;44.37;;;2.00;;
5032;SDS011;2535;49.888;8.942;2023-06-14T03:34:58;43.70;;;1.80;;
5032;SDS011;2535;49.888;8.942;2023-06-14T03:37:24;44.43;;;2.07;;
5032;SDS011;2535;49.888;8.942;2023-06-14T03:39:50;44.70;;;2.30;;
5032;SDS011;2535;49.888;8.942;2023-06-14T03:42:16;44.47;;;2.60;;
5032;SDS011;2535;49.888;8.942;2023-06-14T03:44:42;44.80;;;2.10;;
5032;SDS011;2535;49.888;8.942;2023-06-14T03:47:08;45.90;;;3.03;;
5032;SDS011;2535;49.888;8.942;2023-06-14T03:49:34;48.10;;;2.80;;
5032;SDS011;2535;49.888;8.942;2023-06-14T03:52:00;44.60;;;2.37;;
5032;SDS011;2535;49.888;8.942;2023-06-14T03:54:27;45.60;;;2.53;;
5032;SDS011;2535;49.888;8.942;2023-06-14T03:56:53;44.37;;;2.30;;
5032;SDS011;2535;49.888;8.942;2023-06-14T03:59:21;46.50;;;2.43;;
5032;SDS011;2535;49.888;8.942;2023-06-14T04:01:47;45.33;;;2.10;;
5032;SDS011;2535;49.888;8.942;2023-06-14T04:04:13;44.50;;;2.00;;
5032;SDS011;2535;49.888;8.942;2023-06-14T04:06:41;45.40;;;2.63;;
5032;SDS011;2535;49.888;8.942;2023-06-14T04:09:07;44.67;;;1.83;;
5032;SDS011;2535;49.888;8.942;2023-06-14T04:11:33;45.97;;;2.53;;
5032;SDS011;2535;49.888;8.942;2023-06-14T04:13:59;45.60;;;2.70;;
5032;SDS011;2535;49.888;8.942;2023-06-14T04:16:26;45.67;;;2.10;;
5032;SDS011;2535;49.888;8.942;2023-06-14T04:18:54;45.17;;;2.20;;
5032;SDS011;2535;49.888;8.942;2023-06-14T04:21:20;49.20;;;2.53;;
5032;SDS011;2535;49.888;8.942;2023-06-14T04:23:48;49.33;;;2.60;;
5032;SDS011;2535;49.888;8.942;2023-06-14T04:26:17;46.30;;;2.60;;
5032;SDS011;2535;49.888;8.942;2023-06-14T04:28:44;48.17;;;3.53;;
5032;SDS011;2535;49.888;8.942;2023-06-14T04:31:11;47.60;;;2.37;;
5032;SDS011;2535;49.888;8.942;2023-06-14T04:33:37;45.77;;;2.10;;
5032;SDS011;2535;49.888;8.942;2023-06-14T04:36:09;47.67;;;2.87;;
5032;SDS011;2535;49.888;8.942;2023-06-14T04:38:37;48.07;;;2.67;;
5032;SDS011;2535;49.888;8.942;2023-06-14T04:41:03;45.07;;;2.00;;
5032;SDS011;2535;49.888;8.942;2023-06-14T04:43:29;52.30;;;2.80;;
5032;SDS011;2535;49.888;8.942;2023-06-14T04:45:56;46.07;;;2.57;;
5032;SDS011;2535;49.888;8.942;2023-06-14T04:48:23;49.80;;;2.27;;
5032;SDS011;2535;49.888;8.942;2023-06-14T04:50:49;46.30;;;2.80;;
5032;SDS011;2535;49.888;8.942;2023-06-14T04:53:19;45.03;;;2.07;;
5032;SDS011;2535;49.888;8.942;2023-06-14T04:55:47;47.23;;;2.70;;
5032;SDS011;2535;49.888;8.942;2023-06-14T04:58:13;45.33;;;2.30;;
5032;SDS011;2535;49.888;8.942;2023-06-14T05:00:39;46.03;;;2.43;;
5032;SDS011;2535;49.888;8.942;2023-06-14T05:03:07;46.87;;;2.37;;
5032;SDS011;2535;49.888;8.942;2023-06-14T05:05:33;44.87;;;2.07;;
5032;SDS011;2535;49.888;8.942;2023-06-14T05:07:59;45.47;;;2.40;;
5032;SDS011;2535;49.888;8.942;2023-06-14T05:10:25;46.70;;;2.80;;
5032;SDS011;2535;49.888;8.942;2023-06-14T05:12:51;47.93;;;2.23;;
5032;SDS011;2535;49.888;8.942;2023-06-14T05:15:17;45.70;;;2.50;;
5032;SDS011;2535;49.888;8.942;2023-06-14T05:17:45;44.93;;;2.67;;
5032;SDS011;2535;49.888;8.942;2023-06-14T05:20:19;46.40;;;2.23;;
5032;SDS011;2535;49.888;8.942;2023-06-14T05:22:45;44.90;;;2.33;;
5032;SDS011;2535;49.888;8.942;2023-06-14T05:25:11;46.07;;;3.03;;
5032;SDS011;2535;49.888;8.942;2023-06-14T05:27:37;44.97;;;2.13;;
5032;SDS011;2535;49.888;8.942;2023-06-14T05:30:06;46.70;;;2.50;;
5032;SDS011;2535;49.888;8.942;2023-06-14T05:32:33;44.70;;;1.90;;
5032;SDS011;2535;49.888;8.942;2023-06-14T05:34:59;45.80;;;2.40;;
5032;SDS011;2535;49.888;8.942;2023-06-14T05:37:25;45.60;;;2.57;;
5032;SDS011;2535;49.888;8.942;2023-06-14T05:39:51;51.00;;;2.13;;
5032;SDS011;2535;49.888;8.942;2023-06-14T05:42:17;45.97;;;2.70;;
5032;SDS011;2535;49.888;8.942;2023-06-14T05:44:43;43.93;;;1.70;;
5032;SDS011;2535;49.888;8.942;2023-06-14T05:47:09;45.10;;;2.23;;
5032;SDS011;2535;49.888;8.942;2023-06-14T05:49:35;46.93;;;2.87;;
5032;SDS011;2535;49.888;8.942;2023-06-14T05:52:01;44.17;;;2.07;;
5032;SDS011;2535;49.888;8.942;2023-06-14T05:54:27;45.10;;;2.80;;
5032;SDS011;2535;49.888;8.942;2023-06-14T05:56:53;44.83;;;2.00;;
5032;SDS011;2535;49.888;8.942;2023-06-14T05:59:19;44.77;;;2.40;;
5032;SDS011;2535;49.888;8.942;2023-06-14T06:01:45;46.50;;;2.77;;
5032;SDS011;2535;49.888;8.942;2023-06-14T06:04:11;44.27;;;1.90;;
5032;SDS011;2535;49.888;8.942;2023-06-14T06:06:37;46.10;;;2.90;;
5032;SDS011;2535;49.888;8.942;2023-06-14T06:09:04;45.67;;;2.50;;
5032;SDS011;2535;49.888;8.942;2023-06-14T06:11:31;44.70;;;2.30;;
5032;SDS011;2535;49.888;8.942;2023-06-14T06:13:57;46.90;;;2.67;;
5032;SDS011;2535;49.888;8.942;2023-06-14T06:16:23;45.00;;;2.43;;
5032;SDS011;2535;49.888;8.942;2023-06-14T06:18:49;48.80;;;3.03;;
5032;SDS011;2535;49.888;8.942;2023-06-14T06:21:15;45.03;;;2.60;;
5032;SDS011;2535;49.888;8.942;2023-06-14T06:23:41;45.27;;;2.07;;
5032;SDS011;2535;49.888;8.942;2023-06-14T06:26:07;45.40;;;2.53;;
5032;SDS011;2535;49.888;8.942;2023-06-14T06:28:33;43.83;;;1.60;;
5032;SDS011;2535;49.888;8.942;2023-06-14T06:30:59;44.40;;;2.10;;
5032;SDS011;2535;49.888;8.942;2023-06-14T06:33:25;43.60;;;1.73;;
5032;SDS011;2535;49.888;8.942;2023-06-14T06:35:51;44.97;;;2.67;;
5032;SDS011;2535;49.888;8.942;2023-06-14T06:38:17;44.97;;;1.50;;
5032;SDS011;2535;49.888;8.942;2023-06-14T06:40:43;42.67;;;1.60;;
5032;SDS011;2535;49.888;8.942;2023-06-14T06:43:09;44.00;;;2.10;;
5032;SDS011;2535;49.888;8.942;2023-06-14T06:45:38;44.07;;;2.30;;
5032;SDS011;2535;49.888;8.942;2023-06-14T06:48:04;44.10;;;1.87;;
5032;SDS011;2535;49.888;8.942;2023-06-14T06:50:31;43.40;;;1.87;;
5032;SDS011;2535;49.888;8.942;2023-06-14T06:52:57;43.43;;;2.03;;
5032;SDS011;2535;49.888;8.942;2023-06-14T06:55:24;45.60;;;2.70;;
5032;SDS011;2535;49.888;8.942;2023-06-14T06:57:50;44.07;;;2.13;;
5032;SDS011;2535;49.888;8.942;2023-06-14T07:00:17;42.87;;;1.73;;
5032;SDS011;2535;49.888;8.942;2023-06-14T07:02:44;43.93;;;2.33;;
5032;SDS011;2535;49.888;8.942;2023-06-14T07:05:10;42.80;;;2.23;;
5032;SDS011;2535;49.888;8.942;2023-06-14T07:07:36;42.77;;;1.97;;
5032;SDS011;2535;49.888;8.942;2023-06-14T07:10:02;43.57;;;1.83;;
5032;SDS011;2535;49.888;8.942;2023-06-14T07:12:30;50.63;;;2.07;;
5032;SDS011;2535;49.888;8.942;2023-06-14T07:14:58;42.40;;;1.90;;
5032;SDS011;2535;49.888;8.942;2023-06-14T07:17:24;43.20;;;2.13;;
5032;SDS011;2535;49.888;8.942;2023-06-14T07:19:50;41.90;;;1.70;;
5032;SDS011;2535;49.888;8.942;2023-06-14T07:22:18;42.10;;;1.83;;
5032;SDS011;2535;49.888;8.942;2023-06-14T07:24:44;43.00;;;2.33;;
5032;SDS011;2535;49.888;8.942;2023-06-14T07:27:10;69.07;;;2.23;;
5032;SDS011;2535;49.888;8.942;2023-06-14T07:29:38;42.20;;;1.90;;
5032;SDS011;2535;49.888;8.942;2023-06-14T07:32:04;42.00;;;1.80;;
5032;SDS011;2535;49.888;8.942;2023-06-14T07:34:30;43.53;;;2.30;;
5032;SDS011;2535;49.888;8.942;2023-06-14T07:36:56;42.50;;;2.20;;
5032;SDS011;2535;49.888;8.942;2023-06-14T07:39:23;42.70;;;2.30;;
5032;SDS011;2535;49.888;8.942;2023-06-14T07:41:48;44.20;;;2.30;;
5032;SDS011;2535;49.888;8.942;2023-06-14T07:44:14;41.57;;;1.73;;
5032;SDS011;2535;49.888;8.942;2023-06-14T07:46:41;41.40;;;1.57;;
5032;SDS011;2535;49.888;8.942;2023-06-14T07:49:07;41.47;;;2.10;;
5032;SDS011;2535;49.888;8.942;2023-06-14T07:51:33;40.57;;;1.50;;
5032;SDS011;2535;49.888;8.942;2023-06-14T07:53:59;41.67;;;1.70;;
5032;SDS011;2535;49.888;8.942;2023-06-14T07:56:28;40.90;;;1.63;;
5032;SDS011;2535;49.888;8.942;2023-06-14T07:58:54;41.17;;;1.70;;
5032;SDS011;2535;49.888;8.942;2023-06-14T08:01:20;41.47;;;2.10;;
5032;SDS011;2535;49.888;8.942;2023-06-14T08:03:46;40.97;;;1.70;;
5032;SDS011;2535;49.888;8.942;2023-06-14T08:06:12;41.30;;;1.70;;
5032;SDS011;2535;49.888;8.942;2023-06-14T08:08:38;41.97;;;2.00;;
5032;SDS011;2535;49.888;8.942;2023-06-14T08:11:04;40.53;;;1.50;;
5032;SDS011;2535;49.888;8.942;2023-06-14T08:13:30;41.27;;;2.03;;
5032;SDS011;2535;49.888;8.942;2023-06-14T08:15:56;40.77;;;1.87;;
5032;SDS011;2535;49.888;8.942;2023-06-14T08:18:23;39.67;;;1.30;;
5032;SDS011;2535;49.888;8.942;2023-06-14T08:20:49;40.30;;;1.53;;
5032;SDS011;2535;49.888;8.942;2023-06-14T08:23:15;39.97;;;1.40;;
5032;SDS011;2535;49.888;8.942;2023-06-14T08:25:44;39.37;;;1.33;;
5032;SDS011;2535;49.888;8.942;2023-06-14T08:28:10;40.40;;;1.77;;
5032;SDS011;2535;49.888;8.942;2023-06-14T08:30:36;40.03;;;1.40;;
5032;SDS011;2535;49.888;8.942;2023-06-14T08:33:02;40.67;;;1.87;;
5032;SDS011;2535;49.888;8.942;2023-06-14T08:35:28;39.47;;;1.30;;
5032;SDS011;2535;49.888;8.942;2023-06-14T08:37:54;39.90;;;1.40;;
5032;SDS011;2535;49.888;8.942;2023-06-14T08:40:21;39.40;;;1.27;;
5032;SDS011;2535;49.888;8.942;2023-06-14T08:42:51;39.70;;;1.37;;
5032;SDS011;2535;49.888;8.942;2023-06-14T08:45:18;39.97;;;1.50;;
5032;SDS011;2535;49.888;8.942;2023-06-14T08:47:44;39.33;;;1.43;;
5032;SDS011;2535;49.888;8.942;2023-06-14T08:50:10;40.40;;;1.60;;
5032;SDS011;2535;49.888;8.942;2023-06-14T08:52:40;39.27;;;1.30;;
5032;SDS011;2535;49.888;8.942;2023-06-14T08:55:15;41.70;;;1.97;;
5032;SDS011;2535;49.888;8.942;2023-06-14T08:57:42;40.20;;;1.93;;
5032;SDS011;2535;49.888;8.942;2023-06-14T09:00:09;39.97;;;1.90;;
5032;SDS011;2535;49.888;8.942;2023-06-14T09:02:38;39.70;;;1.77;;
5032;SDS011;2535;49.888;8.942;2023-06-14T09:05:09;39.77;;;1.80;;
5032;SDS011;2535;49.888;8.942;2023-06-14T09:07:35;39.07;;;1.33;;
5032;SDS011;2535;49.888;8.942;2023-06-14T09:10:06;38.77;;;1.27;;
5032;SDS011;2535;49.888;8.942;2023-06-14T09:12:33;38.47;;;1.07;;
5032;SDS011;2535;49.888;8.942;2023-06-14T09:14:59;38.70;;;1.20;;
5032;SDS011;2535;49.888;8.942;2023-06-14T09:17:25;39.10;;;1.57;;
5032;SDS011;2535;49.888;8.942;2023-06-14T09:19:51;39.20;;;1.50;;
5032;SDS011;2535;49.888;8.942;2023-06-14T09:22:17;38.47;;;1.10;;
5032;SDS011;2535;49.888;8.942;2023-06-14T09:24:43;38.57;;;1.23;;
5032;SDS011;2535;49.888;8.942;2023-06-14T09:27:14;38.80;;;1.37;;
5032;SDS011;2535;49.888;8.942;2023-06-14T09:29:40;38.63;;;1.30;;
5032;SDS011;2535;49.888;8.942;2023-06-14T09:32:06;39.10;;;1.40;;
5032;SDS011;2535;49.888;8.942;2023-06-14T09:34:32;40.40;;;2.03;;
5032;SDS011;2535;49.888;8.942;2023-06-14T09:36:59;39.97;;;1.53;;
5032;SDS011;2535;49.888;8.942;2023-06-14T09:39:25;39.77;;;1.97;;
5032;SDS011;2535;49.888;8.942;2023-06-14T09:41:52;38.80;;;1.37;;
5032;SDS011;2535;49.888;8.942;2023-06-14T09:44:18;39.20;;;1.77;;
5032;SDS011;2535;49.888;8.942;2023-06-14T09:46:45;39.00;;;1.60;;
5032;SDS011;2535;49.888;8.942;2023-06-14T09:49:11;39.17;;;1.40;;
5032;SDS011;2535;49.888;8.942;2023-06-14T09:51:42;38.10;;;1.30;;
5032;SDS011;2535;49.888;8.942;2023-06-14T09:54:08;37.87;;;1.20;;
5032;SDS011;2535;49.888;8.942;2023-06-14T09:56:38;38.30;;;1.63;;
5032;SDS011;2535;49.888;8.942;2023-06-14T09:59:08;38.30;;;1.47;;
5032;SDS011;2535;49.888;8.942;2023-06-14T10:01:35;39.10;;;2.00;;
5032;SDS011;2535;49.888;8.942;2023-06-14T10:04:04;39.60;;;1.80;;
5032;SDS011;2535;49.888;8.942;2023-06-14T10:06:31;38.00;;;1.13;;
5032;SDS011;2535;49.888;8.942;2023-06-14T10:08:58;38.03;;;1.23;;
5032;SDS011;2535;49.888;8.942;2023-06-14T10:11:25;39.67;;;1.70;;
5032;SDS011;2535;49.888;8.942;2023-06-14T10:13:51;38.40;;;1.37;;
5032;SDS011;2535;49.888;8.942;2023-06-14T10:16:20;38.40;;;1.63;;
5032;SDS011;2535;49.888;8.942;2023-06-14T10:18:49;38.20;;;1.47;;
5032;SDS011;2535;49.888;8.942;2023-06-14T10:23:51;37.10;;;1.27;;
5032;SDS011;2535;49.888;8.942;2023-06-14T10:26:18;37.70;;;1.30;;
5032;SDS011;2535;49.888;8.942;2023-06-14T10:28:54;37.53;;;1.53;;
5032;SDS011;2535;49.888;8.942;2023-06-14T10:31:22;39.20;;;2.13;;
5032;SDS011;2535;49.888;8.942;2023-06-14T10:33:48;37.70;;;1.40;;
5032;SDS011;2535;49.888;8.942;2023-06-14T10:36:24;38.67;;;1.40;;
5032;SDS011;2535;49.888;8.942;2023-06-14T10:39:04;38.40;;;1.70;;
5032;SDS011;2535;49.888;8.942;2023-06-14T10:41:31;45.90;;;1.73;;
5032;SDS011;2535;49.888;8.942;2023-06-14T10:46:38;40.17;;;1.90;;
5032;SDS011;2535;49.888;8.942;2023-06-14T10:49:04;36.57;;;1.37;;
5032;SDS011;2535;49.888;8.942;2023-06-14T10:51:37;39.30;;;2.03;;
5032;SDS011;2535;49.888;8.942;2023-06-14T10:54:11;37.23;;;1.67;;
5032;SDS011;2535;49.888;8.942;2023-06-14T10:56:47;36.50;;;1.50;;
5032;SDS011;2535;49.888;8.942;2023-06-14T10:59:16;39.27;;;2.10;;
5032;SDS011;2535;49.888;8.942;2023-06-14T11:04:17;36.83;;;1.63;;
5032;SDS011;2535;49.888;8.942;2023-06-14T11:06:49;36.97;;;1.40;;
5032;SDS011;2535;49.888;8.942;2023-06-14T11:09:27;36.83;;;1.60;;
5032;SDS011;2535;49.888;8.942;2023-06-14T11:11:59;38.20;;;1.77;;
5032;SDS011;2535;49.888;8.942;2023-06-14T11:14:29;36.97;;;1.90;;
5032;SDS011;2535;49.888;8.942;2023-06-14T11:16:56;36.77;;;1.80;;
5032;SDS011;2535;49.888;8.942;2023-06-14T11:19:22;35.90;;;1.20;;
5032;SDS011;2535;49.888;8.942;2023-06-14T11:21:49;36.27;;;1.40;;
5032;SDS011;2535;49.888;8.942;2023-06-14T11:24:16;37.07;;;1.47;;
5032;SDS011;2535;49.888;8.942;2023-06-14T11:26:42;37.50;;;1.70;;
5032;SDS011;2535;49.888;8.942;2023-06-14T11:29:08;35.73;;;1.40;;
5032;SDS011;2535;49.888;8.942;2023-06-14T11:31:34;35.50;;;1.43;;
5032;SDS011;2535;49.888;8.942;2023-06-14T11:34:00;37.17;;;1.73;;
5032;SDS011;2535;49.888;8.942;2023-06-14T11:36:29;37.40;;;1.57;;
5032;SDS011;2535;49.888;8.942;2023-06-14T11:39:02;36.17;;;1.63;;
5032;SDS011;2535;49.888;8.942;2023-06-14T11:42:04;36.03;;;1.63;;
5032;SDS011;2535;49.888;8.942;2023-06-14T11:44:26;34.57;;;1.13;;
5032;SDS011;2535;49.888;8.942;2023-06-14T11:46:52;35.97;;;1.70;;
5032;SDS011;2535;49.888;8.942;2023-06-14T11:49:18;35.10;;;1.53;;
5032;SDS011;2535;49.888;8.942;2023-06-14T11:51:44;35.43;;;1.60;;
5032;SDS011;2535;49.888;8.942;2023-06-14T11:54:10;34.63;;;1.13;;
5032;SDS011;2535;49.888;8.942;2023-06-14T11:56:36;38.00;;;1.67;;
5032;SDS011;2535;49.888;8.942;2023-06-14T11:59:02;35.50;;;1.83;;
5032;SDS011;2535;49.888;8.942;2023-06-14T12:01:30;35.30;;;1.33;;
5032;SDS011;2535;49.888;8.942;2023-06-14T12:03:56;35.20;;;1.73;;
5032;SDS011;2535;49.888;8.942;2023-06-14T12:06:26;34.67;;;1.17;;
5032;SDS011;2535;49.888;8.942;2023-06-14T12:09:03;35.30;;;1.27;;
5032;SDS011;2535;49.888;8.942;2023-06-14T12:11:32;34.60;;;1.00;;
5032;SDS011;2535;49.888;8.942;2023-06-14T12:13:58;35.37;;;1.73;;
5032;SDS011;2535;49.888;8.942;2023-06-14T12:16:29;40.47;;;1.73;;
5032;SDS011;2535;49.888;8.942;2023-06-14T12:18:56;34.57;;;1.30;;
5032;SDS011;2535;49.888;8.942;2023-06-14T12:21:26;34.10;;;1.27;;
5032;SDS011;2535;49.888;8.942;2023-06-14T12:23:53;33.27;;;1.10;;
5032;SDS011;2535;49.888;8.942;2023-06-14T12:26:19;34.10;;;1.73;;
5032;SDS011;2535;49.888;8.942;2023-06-14T12:28:46;33.60;;;1.20;;
5032;SDS011;2535;49.888;8.942;2023-06-14T12:31:13;33.63;;;1.20;;
5032;SDS011;2535;49.888;8.942;2023-06-14T12:33:40;34.37;;;1.50;;
5032;SDS011;2535;49.888;8.942;2023-06-14T12:36:06;34.57;;;1.37;;
5032;SDS011;2535;49.888;8.942;2023-06-14T12:38:33;35.80;;;2.00;;
5032;SDS011;2535;49.888;8.942;2023-06-14T12:40:59;40.00;;;1.80;;
5032;SDS011;2535;49.888;8.942;2023-06-14T12:43:25;34.20;;;1.53;;
5032;SDS011;2535;49.888;8.942;2023-06-14T12:45:51;36.00;;;1.10;;
5032;SDS011;2535;49.888;8.942;2023-06-14T12:48:17;33.97;;;1.20;;
5032;SDS011;2535;49.888;8.942;2023-06-14T12:50:43;34.00;;;1.40;;
5032;SDS011;2535;49.888;8.942;2023-06-14T12:53:09;34.50;;;1.40;;
5032;SDS011;2535;49.888;8.942;2023-06-14T12:55:35;36.80;;;1.00;;
5032;SDS011;2535;49.888;8.942;2023-06-14T12:58:01;34.83;;;1.50;;
5032;SDS011;2535;49.888;8.942;2023-06-14T13:00:28;34.60;;;1.30;;
5032;SDS011;2535;49.888;8.942;2023-06-14T13:02:55;35.20;;;1.30;;
5032;SDS011;2535;49.888;8.942;2023-06-14T13:05:21;34.37;;;1.20;;
5032;SDS011;2535;49.888;8.942;2023-06-14T13:07:47;34.87;;;1.27;;
5032;SDS011;2535;49.888;8.942;2023-06-14T13:10:13;35.10;;;1.53;;
5032;SDS011;2535;49.888;8.942;2023-06-14T13:12:39;34.50;;;1.27;;
5032;SDS011;2535;49.888;8.942;2023-06-14T13:15:05;34.60;;;1.30;;
5032;SDS011;2535;49.888;8.942;2023-06-14T13:17:32;34.30;;;1.17;;
5032;SDS011;2535;49.888;8.942;2023-06-14T13:20:03;34.60;;;1.30;;
5032;SDS011;2535;49.888;8.942;2023-06-14T13:22:29;34.20;;;1.17;;
5032;SDS011;2535;49.888;8.942;2023-06-14T13:24:55;34.07;;;1.53;;
5032;SDS011;2535;49.888;8.942;2023-06-14T13:27:21;33.70;;;1.50;;
5032;SDS011;2535;49.888;8.942;2023-06-14T13:29:48;34.57;;;1.60;;
5032;SDS011;2535;49.888;8.942;2023-06-14T13:32:14;35.87;;;1.83;;
5032;SDS011;2535;49.888;8.942;2023-06-14T13:34:40;33.60;;;1.53;;
5032;SDS011;2535;49.888;8.942;2023-06-14T13:37:06;33.50;;;1.50;;
5032;SDS011;2535;49.888;8.942;2023-06-14T13:39:32;37.97;;;1.80;;
5032;SDS011;2535;49.888;8.942;2023-06-14T13:41:58;36.93;;;1.63;;
5032;SDS011;2535;49.888;8.942;2023-06-14T13:44:24;33.67;;;1.50;;
5032;SDS011;2535;49.888;8.942;2023-06-14T13:46:50;34.37;;;1.50;;
5032;SDS011;2535;49.888;8.942;2023-06-14T13:49:16;33.77;;;1.00;;
5032;SDS011;2535;49.888;8.942;2023-06-14T13:51:42;34.47;;;1.33;;
5032;SDS011;2535;49.888;8.942;2023-06-14T13:54:11;34.60;;;1.50;;
5032;SDS011;2535;49.888;8.942;2023-06-14T13:56:37;34.20;;;1.20;;
5032;SDS011;2535;49.888;8.942;2023-06-14T13:59:03;34.77;;;1.30;;
5032;SDS011;2535;49.888;8.942;2023-06-14T14:01:29;36.27;;;1.53;;
5032;SDS011;2535;49.888;8.942;2023-06-14T14:03:55;35.60;;;1.47;;
5032;SDS011;2535;49.888;8.942;2023-06-14T14:06:23;33.37;;;1.27;;
5032;SDS011;2535;49.888;8.942;2023-06-14T14:08:49;33.27;;;1.60;;
5032;SDS011;2535;49.888;8.942;2023-06-14T14:11:15;33.00;;;1.37;;
5032;SDS011;2535;49.888;8.942;2023-06-14T14:13:41;31.53;;;1.20;;
5032;SDS011;2535;49.888;8.942;2023-06-14T14:16:07;31.60;;;1.30;;
5032;SDS011;2535;49.888;8.942;2023-06-14T14:18:33;30.90;;;1.60;;
5032;SDS011;2535;49.888;8.942;2023-06-14T14:21:00;32.90;;;1.50;;
5032;SDS011;2535;49.888;8.942;2023-06-14T14:23:26;29.80;;;1.40;;
5032;SDS011;2535;49.888;8.942;2023-06-14T14:25:53;30.27;;;1.60;;
5032;SDS011;2535;49.888;8.942;2023-06-14T14:28:19;30.40;;;1.70;;
5032;SDS011;2535;49.888;8.942;2023-06-14T14:30:45;30.57;;;1.20;;
5032;SDS011;2535;49.888;8.942;2023-06-14T14:33:12;28.90;;;1.03;;
5032;SDS011;2535;49.888;8.942;2023-06-14T14:35:41;29.23;;;1.30;;
5032;SDS011;2535;49.888;8.942;2023-06-14T14:38:07;28.70;;;1.00;;
5032;SDS011;2535;49.888;8.942;2023-06-14T14:40:34;30.30;;;1.70;;
5032;SDS011;2535;49.888;8.942;2023-06-14T14:43:00;29.53;;;1.30;;
5032;SDS011;2535;49.888;8.942;2023-06-14T14:45:26;28.87;;;1.10;;
5032;SDS011;2535;49.888;8.942;2023-06-14T14:47:51;29.13;;;1.00;;
5032;SDS011;2535;49.888;8.942;2023-06-14T14:50:18;29.73;;;1.57;;
5032;SDS011;2535;49.888;8.942;2023-06-14T14:52:44;29.53;;;1.40;;
5032;SDS011;2535;49.888;8.942;2023-06-14T14:55:10;28.37;;;1.00;;
5032;SDS011;2535;49.888;8.942;2023-06-14T14:57:36;28.87;;;1.17;;
5032;SDS011;2535;49.888;8.942;2023-06-14T15:00:03;28.03;;;1.07;;
5032;SDS011;2535;49.888;8.942;2023-06-14T15:02:30;27.90;;;1.13;;
5032;SDS011;2535;49.888;8.942;2023-06-14T15:04:56;27.90;;;1.00;;
5032;SDS011;2535;49.888;8.942;2023-06-14T15:07:25;27.80;;;1.30;;
5032;SDS011;2535;49.888;8.942;2023-06-14T15:09:52;28.30;;;1.00;;
5032;SDS011;2535;49.888;8.942;2023-06-14T15:12:17;27.37;;;1.00;;